Time;durP1;ratioP1;P1;durP2;ratioP2;P2;SDS_P1;SDS_P2;PMS_P1;PMS_P2;Temp;Humidity;BMP_temperature;BMP_pressure;BME280_temperature;BME280_humidity;BME280_pressure;Samples;Min_cycle;Max_cycle;Signal;HPM_P1;HPM_P2
2021/09/26 00:00:11;;;;;;;10.10;9.18;;;;;;;;;;5020668;28;20041;-77
2021/09/26 00:02:37;;;;;;;11.05;9.80;;;;;;;;;;4994049;28;20112;-78
2021/09/26 00:05:02;;;;;;;10.75;9.63;;;;;;;;;;4994525;28;20386;-79
2021/09/26 00:07:27;;;;;;;11.65;10.55;;;;;;;;;;5012729;28;20360;-78
2021/09/26 00:09:52;;;;;;;12.75;11.43;;;;;;;;;;4988782;28;20053;-79
2021/09/26 00:12:18;;;;;;;13.95;12.48;;;;;;;;;;4978199;28;20688;-78
2021/09/26 00:14:43;;;;;;;16.60;14.43;;;;;;;;;;4987088;28;20558;-78
2021/09/26 00:17:08;;;;;;;14.60;13.27;;;;;;;;;;4996319;28;20029;-78
2021/09/26 00:19:34;;;;;;;12.60;11.40;;;;;;;;;;5015882;28;20034;-78
2021/09/26 00:21:59;;;;;;;10.82;9.80;;;;;;;;;;4994252;28;20025;-78
2021/09/26 00:24:24;;;;;;;9.48;8.65;;;;;;;;;;4995373;28;20112;-78
2021/09/26 00:26:49;;;;;;;16.13;14.52;;;;;;;;;;5011587;28;20105;-78
2021/09/26 00:29:15;;;;;;;20.70;18.70;;;;;;;;;;4993844;28;20042;-78
2021/09/26 00:31:40;;;;;;;20.30;18.30;;;;;;;;;;5011113;28;20021;-78
2021/09/26 00:34:05;;;;;;;19.98;18.02;;;;;;;;;;4994366;28;20384;-78
2021/09/26 00:36:30;;;;;;;21.52;19.35;;;;;;;;;;4993760;28;20017;-78
2021/09/26 00:38:55;;;;;;;21.67;19.60;;;;;;;;;;4994133;28;20030;-77
2021/09/26 00:41:21;;;;;;;20.38;18.33;;;;;;;;;;4994166;28;20550;-78
2021/09/26 00:43:46;;;;;;;21.48;19.40;;;;;;;;;;4977716;28;20507;-77
2021/09/26 00:46:11;;;;;;;20.27;18.13;;;;;;;;;;4993824;28;20113;-78
2021/09/26 00:48:36;;;;;;;19.90;17.95;;;;;;;;;;5011203;28;20061;-78
2021/09/26 00:51:02;;;;;;;19.20;17.25;;;;;;;;;;5012858;28;20120;-78
2021/09/26 00:53:27;;;;;;;17.63;15.93;;;;;;;;;;5014091;28;20365;-78
2021/09/26 00:55:54;;;;;;;17.08;15.35;;;;;;;;;;5002108;28;20582;-78
2021/09/26 00:58:20;;;;;;;18.30;16.50;;;;;;;;;;4992216;28;20030;-78
2021/09/26 01:00:47;;;;;;;20.17;18.17;;;;;;;;;;4973763;28;20022;-78
2021/09/26 01:03:12;;;;;;;20.10;18.20;;;;;;;;;;4990633;28;20053;-78
2021/09/26 01:05:37;;;;;;;17.77;16.07;;;;;;;;;;4992212;28;20108;-78
2021/09/26 01:08:03;;;;;;;18.98;17.25;;;;;;;;;;4992165;28;20269;-77
2021/09/26 01:10:31;;;;;;;19.23;17.20;;;;;;;;;;4991017;28;20480;-79
2021/09/26 01:13:14;;;;;;;16.40;14.77;;;;;;;;;;4991852;28;20521;-77
2021/09/26 01:15:43;;;;;;;16.05;14.63;;;;;;;;;;4991646;28;20045;-77
2021/09/26 01:18:19;;;;;;;16.35;14.75;;;;;;;;;;4991747;28;20022;-78
2021/09/26 01:20:59;;;;;;;15.45;14.05;;;;;;;;;;4991687;28;20038;-79
2021/09/26 01:23:26;;;;;;;15.73;14.23;;;;;;;;;;4990190;28;20384;-79
2021/09/26 01:26:10;;;;;;;17.25;15.18;;;;;;;;;;4975999;28;20018;-78
2021/09/26 01:28:42;;;;;;;16.05;14.48;;;;;;;;;;4991871;28;20373;-77
2021/09/26 01:31:09;;;;;;;15.23;13.82;;;;;;;;;;4989527;28;20030;-77
2021/09/26 01:33:37;;;;;;;14.77;13.45;;;;;;;;;;4990523;28;20026;-78
2021/09/26 01:36:14;;;;;;;15.52;14.02;;;;;;;;;;4991398;28;20030;-77
2021/09/26 01:38:48;;;;;;;15.23;13.52;;;;;;;;;;4990654;28;20487;-77
2021/09/26 01:41:31;;;;;;;13.75;12.55;;;;;;;;;;4991158;28;20039;-77
2021/09/26 01:43:58;;;;;;;14.57;13.18;;;;;;;;;;4994588;28;20026;-77
2021/09/26 01:46:26;;;;;;;14.18;12.95;;;;;;;;;;4994990;28;20034;-77
2021/09/26 01:48:57;;;;;;;14.48;12.98;;;;;;;;;;4994358;28;20035;-78
2021/09/26 01:51:23;;;;;;;14.18;12.82;;;;;;;;;;4990588;28;20023;-77
2021/09/26 01:53:49;;;;;;;15.27;13.68;;;;;;;;;;4993372;28;20107;-78
2021/09/26 01:56:15;;;;;;;15.50;14.00;;;;;;;;;;5004670;28;20133;-78
2021/09/26 01:58:40;;;;;;;13.32;12.13;;;;;;;;;;4997187;28;20018;-77
2021/09/26 02:01:07;;;;;;;13.43;12.23;;;;;;;;;;5013463;28;20387;-77
2021/09/26 02:03:33;;;;;;;12.65;11.45;;;;;;;;;;4997044;28;20025;-78
2021/09/26 02:05:58;;;;;;;15.98;14.50;;;;;;;;;;4997092;28;20018;-77
2021/09/26 02:08:24;;;;;;;20.70;18.48;;;;;;;;;;5014464;28;20550;-77
2021/09/26 02:10:49;;;;;;;21.10;18.90;;;;;;;;;;5013991;28;20037;-77
2021/09/26 02:13:15;;;;;;;21.17;18.83;;;;;;;;;;4996526;28;20030;-77
2021/09/26 02:15:43;;;;;;;22.15;19.95;;;;;;;;;;5013301;28;20080;-77
2021/09/26 02:18:09;;;;;;;20.05;17.85;;;;;;;;;;5014379;28;20407;-77
2021/09/26 02:20:36;;;;;;;17.15;15.55;;;;;;;;;;5014300;28;20022;-77
2021/09/26 02:23:01;;;;;;;18.25;16.38;;;;;;;;;;5011752;28;20093;-77
2021/09/26 02:25:27;;;;;;;18.67;16.13;;;;;;;;;;4980324;28;20125;-77
2021/09/26 02:27:52;;;;;;;23.52;21.02;;;;;;;;;;4996567;28;20057;-78
2021/09/26 02:30:18;;;;;;;23.77;21.38;;;;;;;;;;4996519;28;20025;-77
2021/09/26 02:32:45;;;;;;;27.67;24.35;;;;;;;;;;4995701;28;20025;-77
2021/09/26 02:35:11;;;;;;;25.35;22.75;;;;;;;;;;5013540;28;20026;-77
2021/09/26 02:37:36;;;;;;;21.55;19.35;;;;;;;;;;4980336;28;20026;-77
2021/09/26 02:40:03;;;;;;;21.88;19.73;;;;;;;;;;4996520;28;20018;-77
2021/09/26 02:42:28;;;;;;;17.55;15.82;;;;;;;;;;5013510;28;20026;-77
2021/09/26 02:44:59;;;;;;;17.17;15.43;;;;;;;;;;5013598;28;20021;-77
2021/09/26 02:47:26;;;;;;;16.48;14.75;;;;;;;;;;5013092;28;20592;-77
2021/09/26 02:49:52;;;;;;;16.13;14.52;;;;;;;;;;5014178;28;20021;-78
2021/09/26 02:52:17;;;;;;;17.88;16.15;;;;;;;;;;5013053;28;20032;-77
2021/09/26 02:54:43;;;;;;;17.08;15.50;;;;;;;;;;5004455;28;20469;-77
2021/09/26 02:57:09;;;;;;;16.10;14.60;;;;;;;;;;4992244;28;20504;-77
2021/09/26 02:59:35;;;;;;;17.10;15.43;;;;;;;;;;4976365;28;20023;-78
2021/09/26 03:02:02;;;;;;;16.05;14.52;;;;;;;;;;4993721;28;20026;-77
2021/09/26 03:04:27;;;;;;;17.55;15.85;;;;;;;;;;4993726;28;20015;-77
2021/09/26 03:06:53;;;;;;;15.52;13.98;;;;;;;;;;4992397;28;20084;-77
2021/09/26 03:09:18;;;;;;;17.48;15.65;;;;;;;;;;4994100;28;20025;-77
2021/09/26 03:11:43;;;;;;;18.85;16.85;;;;;;;;;;4976150;28;20477;-78
2021/09/26 03:14:08;;;;;;;15.93;14.43;;;;;;;;;;4992009;28;20065;-78
2021/09/26 03:16:33;;;;;;;15.75;14.07;;;;;;;;;;4992402;28;20121;-78
2021/09/26 03:18:59;;;;;;;13.93;12.55;;;;;;;;;;4992628;28;20469;-78
2021/09/26 03:21:27;;;;;;;15.80;14.13;;;;;;;;;;4993313;28;20054;-78
2021/09/26 03:23:52;;;;;;;13.45;12.07;;;;;;;;;;4989470;28;20033;-79
2021/09/26 03:26:17;;;;;;;11.35;10.13;;;;;;;;;;4991611;28;20035;-78
2021/09/26 03:28:42;;;;;;;10.00;9.10;;;;;;;;;;4993798;28;20030;-78
2021/09/26 03:31:08;;;;;;;9.13;8.07;;;;;;;;;;4992954;28;20505;-78
2021/09/26 03:33:33;;;;;;;10.18;9.15;;;;;;;;;;4975220;28;20396;-78
2021/09/26 03:35:58;;;;;;;9.15;8.25;;;;;;;;;;4989011;28;20033;-81
2021/09/26 03:38:23;;;;;;;8.60;7.78;;;;;;;;;;4993572;28;20019;-78
2021/09/26 03:40:49;;;;;;;9.20;8.40;;;;;;;;;;4992937;28;20018;-78
2021/09/26 03:43:14;;;;;;;10.38;9.27;;;;;;;;;;4975620;28;20065;-79
2021/09/26 03:45:39;;;;;;;9.70;8.80;;;;;;;;;;4992547;28;20460;-78
2021/09/26 03:48:06;;;;;;;10.02;9.02;;;;;;;;;;4992921;28;20085;-77
2021/09/26 03:50:31;;;;;;;9.65;8.70;;;;;;;;;;4993365;28;20018;-77
2021/09/26 03:52:56;;;;;;;9.80;8.90;;;;;;;;;;4990791;28;20041;-76
2021/09/26 03:55:22;;;;;;;10.18;9.27;;;;;;;;;;4993531;28;20411;-77
2021/09/26 03:57:48;;;;;;;9.80;8.90;;;;;;;;;;5012596;28;20145;-77
2021/09/26 04:00:15;;;;;;;8.75;7.95;;;;;;;;;;5012711;28;20085;-77
2021/09/26 04:02:40;;;;;;;8.57;7.88;;;;;;;;;;4994382;28;20022;-79
2021/09/26 04:05:05;;;;;;;9.20;8.35;;;;;;;;;;5011767;28;20040;-77
2021/09/26 04:07:31;;;;;;;9.93;8.93;;;;;;;;;;5004322;28;20022;-77
2021/09/26 04:09:56;;;;;;;9.93;8.93;;;;;;;;;;4994811;28;20475;-77
2021/09/26 04:12:21;;;;;;;9.45;8.55;;;;;;;;;;5012530;28;20034;-77
2021/09/26 04:14:46;;;;;;;9.20;8.30;;;;;;;;;;4994412;28;20026;-77
2021/09/26 04:17:12;;;;;;;9.77;8.75;;;;;;;;;;5011167;28;20037;-78
2021/09/26 04:19:37;;;;;;;10.82;9.13;;;;;;;;;;5012040;28;20430;-78
2021/09/26 04:22:02;;;;;;;10.73;9.73;;;;;;;;;;4978219;28;20032;-78
2021/09/26 04:24:28;;;;;;;10.52;9.60;;;;;;;;;;5010585;28;20021;-77
2021/09/26 04:26:53;;;;;;;10.65;9.75;;;;;;;;;;4993390;28;20072;-77
2021/09/26 04:29:18;;;;;;;10.32;9.40;;;;;;;;;;5011707;28;20037;-78
2021/09/26 04:31:43;;;;;;;10.80;9.43;;;;;;;;;;5011737;28;20026;-77
2021/09/26 04:34:08;;;;;;;10.80;9.82;;;;;;;;;;4994117;28;20376;-77
2021/09/26 04:36:34;;;;;;;12.98;11.77;;;;;;;;;;5011355;28;20069;-77
2021/09/26 04:38:59;;;;;;;11.80;10.63;;;;;;;;;;5011922;28;20025;-77
2021/09/26 04:41:24;;;;;;;11.52;10.52;;;;;;;;;;4994147;28;20053;-77
2021/09/26 04:43:49;;;;;;;12.68;11.57;;;;;;;;;;4994139;28;20109;-78
2021/09/26 04:46:14;;;;;;;12.13;11.02;;;;;;;;;;4993609;28;20060;-78
2021/09/26 04:48:40;;;;;;;11.90;10.70;;;;;;;;;;4993617;28;20052;-78
2021/09/26 04:51:05;;;;;;;12.07;10.60;;;;;;;;;;4977920;28;20137;-78
2021/09/26 04:53:30;;;;;;;11.68;10.57;;;;;;;;;;4992833;28;20352;-78
2021/09/26 04:55:55;;;;;;;11.50;10.40;;;;;;;;;;5010689;28;20046;-78
2021/09/26 04:58:20;;;;;;;11.80;10.60;;;;;;;;;;5011739;28;20034;-78
2021/09/26 05:00:50;;;;;;;12.25;11.10;;;;;;;;;;4993619;28;20026;-77
2021/09/26 05:03:15;;;;;;;12.48;11.15;;;;;;;;;;4977287;28;20034;-77
2021/09/26 05:05:40;;;;;;;10.77;9.77;;;;;;;;;;4977837;28;20045;-78
2021/09/26 05:08:06;;;;;;;11.48;10.38;;;;;;;;;;5011667;28;20403;-78
2021/09/26 05:10:31;;;;;;;11.15;10.05;;;;;;;;;;5013611;28;20419;-78
2021/09/26 05:12:56;;;;;;;11.57;10.55;;;;;;;;;;4993733;28;20022;-77
2021/09/26 05:15:22;;;;;;;12.15;11.02;;;;;;;;;;4994085;28;20049;-78
2021/09/26 05:17:47;;;;;;;11.57;10.48;;;;;;;;;;4995137;28;20030;-78
2021/09/26 05:20:12;;;;;;;11.98;10.77;;;;;;;;;;4997436;28;20029;-78
2021/09/26 05:22:38;;;;;;;12.18;10.88;;;;;;;;;;5013699;28;20057;-78
2021/09/26 05:25:03;;;;;;;12.23;11.02;;;;;;;;;;4980404;28;20021;-78
2021/09/26 05:27:29;;;;;;;9.98;8.95;;;;;;;;;;4997625;28;20053;-78
2021/09/26 05:29:54;;;;;;;10.50;9.40;;;;;;;;;;5014716;28;20545;-78
2021/09/26 05:32:19;;;;;;;10.15;8.98;;;;;;;;;;5014039;28;20030;-78
2021/09/26 05:34:44;;;;;;;10.85;9.80;;;;;;;;;;5015179;28;20069;-78
2021/09/26 05:37:10;;;;;;;11.10;9.80;;;;;;;;;;4997248;28;20084;-77
2021/09/26 05:39:35;;;;;;;10.50;9.50;;;;;;;;;;5015215;28;20021;-77
2021/09/26 05:42:03;;;;;;;11.40;9.18;;;;;;;;;;5015124;28;20485;-78
2021/09/26 05:44:32;;;;;;;10.13;9.13;;;;;;;;;;5014362;28;20021;-77
2021/09/26 05:46:57;;;;;;;10.63;9.45;;;;;;;;;;5014596;28;20383;-78
2021/09/26 05:49:22;;;;;;;10.55;9.55;;;;;;;;;;5015154;28;20538;-77
2021/09/26 05:51:47;;;;;;;10.60;9.60;;;;;;;;;;5014745;28;20495;-77
2021/09/26 05:54:13;;;;;;;10.15;8.77;;;;;;;;;;4994987;28;20045;-76
2021/09/26 05:56:38;;;;;;;11.75;9.65;;;;;;;;;;4974885;28;20050;-76
2021/09/26 05:59:03;;;;;;;9.68;8.68;;;;;;;;;;4993927;28;20026;-77
2021/09/26 06:01:28;;;;;;;9.25;8.45;;;;;;;;;;4993905;28;20088;-76
2021/09/26 06:03:54;;;;;;;8.15;7.22;;;;;;;;;;4994939;28;20295;-77
2021/09/26 06:06:19;;;;;;;8.18;7.38;;;;;;;;;;4994144;28;20031;-77
2021/09/26 06:08:44;;;;;;;9.13;8.30;;;;;;;;;;4994720;28;20350;-77
2021/09/26 06:11:09;;;;;;;9.50;8.60;;;;;;;;;;4994613;28;20036;-78
2021/09/26 06:13:34;;;;;;;10.63;9.63;;;;;;;;;;4995281;28;20061;-78
2021/09/26 06:16:02;;;;;;;9.43;8.52;;;;;;;;;;4994226;28;20026;-76
2021/09/26 06:18:27;;;;;;;9.77;8.93;;;;;;;;;;4977689;28;20026;-77
2021/09/26 06:20:52;;;;;;;9.65;8.85;;;;;;;;;;4993579;28;20029;-77
2021/09/26 06:23:18;;;;;;;9.63;8.63;;;;;;;;;;4973802;28;20031;-78
2021/09/26 06:25:43;;;;;;;10.07;8.23;;;;;;;;;;4975472;28;20030;-77
2021/09/26 06:28:08;;;;;;;9.23;8.32;;;;;;;;;;4994191;28;20015;-77
2021/09/26 06:30:36;;;;;;;11.18;7.68;;;;;;;;;;4992466;28;20027;-77
2021/09/26 06:33:01;;;;;;;8.70;8.00;;;;;;;;;;4990127;28;20053;-78
2021/09/26 06:35:27;;;;;;;8.10;7.38;;;;;;;;;;5002529;28;20373;-76
2021/09/26 06:37:54;;;;;;;8.88;8.07;;;;;;;;;;4994033;28;20034;-77
2021/09/26 06:40:19;;;;;;;8.30;7.50;;;;;;;;;;4992893;28;20477;-76
2021/09/26 06:42:44;;;;;;;9.30;8.40;;;;;;;;;;4994561;28;20080;-80
2021/09/26 06:45:09;;;;;;;8.98;7.53;;;;;;;;;;4993090;28;20062;-79
2021/09/26 06:47:35;;;;;;;8.30;7.50;;;;;;;;;;4992106;28;20046;-79
2021/09/26 06:50:00;;;;;;;9.27;7.50;;;;;;;;;;4994151;28;20056;-79
2021/09/26 06:52:25;;;;;;;8.70;7.82;;;;;;;;;;4992272;28;20480;-78
2021/09/26 06:54:50;;;;;;;8.60;7.85;;;;;;;;;;4990850;28;20374;-77
2021/09/26 06:57:16;;;;;;;11.23;8.23;;;;;;;;;;4992078;28;20409;-78
2021/09/26 06:59:41;;;;;;;8.10;7.40;;;;;;;;;;4994097;28;20491;-78
2021/09/26 07:02:06;;;;;;;8.65;7.85;;;;;;;;;;4990496;28;20481;-76
2021/09/26 07:04:32;;;;;;;11.48;10.38;;;;;;;;;;4982169;28;20019;-80
2021/09/26 07:06:57;;;;;;;10.48;9.20;;;;;;;;;;4991260;28;20093;-80
2021/09/26 07:09:22;;;;;;;6.82;6.18;;;;;;;;;;4993651;28;20117;-78
2021/09/26 07:11:47;;;;;;;8.07;6.78;;;;;;;;;;4995706;28;20034;-78
2021/09/26 07:14:13;;;;;;;7.00;5.90;;;;;;;;;;5002310;28;20381;-76
2021/09/26 07:16:38;;;;;;;7.78;5.97;;;;;;;;;;4991088;28;20519;-80
2021/09/26 07:19:03;;;;;;;6.93;6.22;;;;;;;;;;4991955;28;20030;-78
2021/09/26 07:21:28;;;;;;;6.38;5.78;;;;;;;;;;4975196;28;20027;-78
2021/09/26 07:23:54;;;;;;;7.28;6.55;;;;;;;;;;4989515;28;20109;-78
2021/09/26 07:26:19;;;;;;;7.57;6.97;;;;;;;;;;4991282;28;20046;-79
2021/09/26 07:28:44;;;;;;;8.40;7.60;;;;;;;;;;4993726;28;20023;-79
2021/09/26 07:31:10;;;;;;;9.48;7.93;;;;;;;;;;4991245;28;20077;-79
2021/09/26 07:33:35;;;;;;;7.93;7.22;;;;;;;;;;4991002;28;20026;-78
2021/09/26 07:36:00;;;;;;;7.80;7.05;;;;;;;;;;4993590;28;20117;-79
2021/09/26 07:38:25;;;;;;;7.88;6.97;;;;;;;;;;4974694;28;20030;-78
2021/09/26 07:40:51;;;;;;;7.05;6.13;;;;;;;;;;4975060;28;20030;-78
2021/09/26 07:43:16;;;;;;;5.47;4.97;;;;;;;;;;4993226;28;20018;-77
2021/09/26 07:45:41;;;;;;;5.88;4.90;;;;;;;;;;4989913;28;20018;-77
2021/09/26 07:48:06;;;;;;;4.63;4.23;;;;;;;;;;4965702;28;20026;-77
2021/09/26 07:50:32;;;;;;;5.68;4.13;;;;;;;;;;4975787;28;20272;-77
2021/09/26 07:52:57;;;;;;;4.10;3.70;;;;;;;;;;4989273;28;20019;-75
2021/09/26 07:55:22;;;;;;;3.97;3.33;;;;;;;;;;4993112;28;20037;-77
2021/09/26 07:57:47;;;;;;;3.95;3.50;;;;;;;;;;4993475;28;20030;-79
2021/09/26 08:00:13;;;;;;;4.30;3.27;;;;;;;;;;5011404;28;20030;-78
2021/09/26 08:02:39;;;;;;;4.18;3.50;;;;;;;;;;5006913;28;20305;-78
2021/09/26 08:05:04;;;;;;;3.25;2.75;;;;;;;;;;5001321;28;20038;-78
2021/09/26 08:07:30;;;;;;;3.55;3.25;;;;;;;;;;5011642;28;20464;-79
2021/09/26 08:09:56;;;;;;;3.35;3.05;;;;;;;;;;4978919;28;20484;-80
2021/09/26 08:12:21;;;;;;;4.65;3.00;;;;;;;;;;5012058;28;20046;-79
2021/09/26 08:14:46;;;;;;;3.83;2.83;;;;;;;;;;5012159;28;20029;-78
2021/09/26 08:17:12;;;;;;;3.95;3.40;;;;;;;;;;5011219;28;20030;-79
2021/09/26 08:19:37;;;;;;;3.03;2.57;;;;;;;;;;5009460;28;20085;-79
2021/09/26 08:22:03;;;;;;;3.20;2.90;;;;;;;;;;5013262;28;20275;-80
2021/09/26 08:24:28;;;;;;;2.78;2.53;;;;;;;;;;4994753;28;20043;-79
2021/09/26 08:26:54;;;;;;;4.07;2.90;;;;;;;;;;5008908;28;20589;-78
2021/09/26 08:29:19;;;;;;;2.83;2.63;;;;;;;;;;5015378;28;20586;-78
2021/09/26 08:31:44;;;;;;;3.20;2.90;;;;;;;;;;5004354;28;20292;-78
2021/09/26 08:34:09;;;;;;;3.00;2.70;;;;;;;;;;5010982;28;20315;-79
2021/09/26 08:36:35;;;;;;;3.47;2.90;;;;;;;;;;4994063;28;20554;-77
2021/09/26 08:39:00;;;;;;;2.42;2.22;;;;;;;;;;5011532;28;20021;-77
2021/09/26 08:41:26;;;;;;;2.55;2.35;;;;;;;;;;5011096;28;20475;-76
2021/09/26 08:43:52;;;;;;;3.15;2.70;;;;;;;;;;5011186;28;20010;-76
2021/09/26 08:46:17;;;;;;;2.67;2.38;;;;;;;;;;5010633;28;20052;-80
2021/09/26 08:48:43;;;;;;;2.63;2.42;;;;;;;;;;4992691;28;20480;-79
2021/09/26 08:51:12;;;;;;;2.47;2.28;;;;;;;;;;4994085;28;20037;-79
2021/09/26 08:53:37;;;;;;;2.50;2.33;;;;;;;;;;4991260;28;20022;-79
2021/09/26 08:56:03;;;;;;;2.20;2.05;;;;;;;;;;5010918;28;20046;-78
2021/09/26 08:58:28;;;;;;;2.35;2.20;;;;;;;;;;5011343;28;20049;-79
2021/09/26 09:00:53;;;;;;;2.05;1.85;;;;;;;;;;4975939;28;20126;-78
2021/09/26 09:03:19;;;;;;;3.40;2.17;;;;;;;;;;5010510;28;20061;-77
2021/09/26 09:05:50;;;;;;;2.92;2.15;;;;;;;;;;5011241;28;20072;-79
2021/09/26 09:08:16;;;;;;;3.70;1.85;;;;;;;;;;4993505;28;20105;-79
2021/09/26 09:10:41;;;;;;;2.38;2.22;;;;;;;;;;4993852;28;20018;-78
2021/09/26 09:13:07;;;;;;;2.90;1.90;;;;;;;;;;5011422;28;20054;-78
2021/09/26 09:15:32;;;;;;;4.45;2.10;;;;;;;;;;5004889;28;20026;-79
2021/09/26 09:18:02;;;;;;;2.60;2.40;;;;;;;;;;5010441;28;20033;-78
2021/09/26 09:20:29;;;;;;;2.28;1.77;;;;;;;;;;5011070;28;20079;-80
2021/09/26 09:22:57;;;;;;;2.20;1.98;;;;;;;;;;5002105;28;20048;-78
2021/09/26 09:25:40;;;;;;;2.35;1.95;;;;;;;;;;5008738;28;20365;-79
2021/09/26 09:28:07;;;;;;;2.90;2.20;;;;;;;;;;5010911;28;20030;-77
2021/09/26 09:30:34;;;;;;;2.30;2.05;;;;;;;;;;4993342;28;20021;-77
2021/09/26 09:33:00;;;;;;;2.00;1.90;;;;;;;;;;5003603;28;20424;-78
2021/09/26 09:35:28;;;;;;;2.35;2.15;;;;;;;;;;5011603;28;20036;-77
2021/09/26 09:37:54;;;;;;;2.38;2.17;;;;;;;;;;5009963;28;20053;-77
2021/09/26 09:40:19;;;;;;;2.63;2.20;;;;;;;;;;4992650;28;20429;-77
2021/09/26 09:42:49;;;;;;;3.10;1.88;;;;;;;;;;5010066;28;20034;-77
2021/09/26 09:45:18;;;;;;;2.05;1.85;;;;;;;;;;5009972;28;20024;-78
2021/09/26 09:48:02;;;;;;;1.90;1.80;;;;;;;;;;4993196;28;20029;-77
2021/09/26 09:50:47;;;;;;;2.85;2.03;;;;;;;;;;5004699;28;20033;-77
2021/09/26 09:53:20;;;;;;;1.83;1.70;;;;;;;;;;4989473;28;20049;-77
2021/09/26 09:55:54;;;;;;;2.83;1.92;;;;;;;;;;4975986;28;20042;-76
2021/09/26 09:58:20;;;;;;;3.15;1.80;;;;;;;;;;4988630;28;20026;-78
2021/09/26 10:00:56;;;;;;;2.13;1.92;;;;;;;;;;4992455;28;20025;-78
2021/09/26 10:03:35;;;;;;;2.75;2.00;;;;;;;;;;5009285;28;20448;-77
2021/09/26 10:06:02;;;;;;;2.42;1.90;;;;;;;;;;4996431;28;20026;-78
2021/09/26 10:08:33;;;;;;;2.55;2.35;;;;;;;;;;5022994;28;20431;-76
2021/09/26 10:11:05;;;;;;;1.67;1.58;;;;;;;;;;5011846;28;20022;-77
2021/09/26 10:13:30;;;;;;;1.92;1.75;;;;;;;;;;5014212;28;20018;-76
2021/09/26 10:15:56;;;;;;;1.70;1.60;;;;;;;;;;4996287;28;20045;-77
2021/09/26 10:18:21;;;;;;;2.88;1.40;;;;;;;;;;5000018;28;20033;-77
2021/09/26 10:20:46;;;;;;;2.30;1.60;;;;;;;;;;5003946;28;20029;-77
2021/09/26 10:23:11;;;;;;;2.43;1.83;;;;;;;;;;4992425;28;20653;-77
2021/09/26 10:25:37;;;;;;;1.92;1.73;;;;;;;;;;4981479;28;20364;-79
2021/09/26 10:28:02;;;;;;;1.70;1.60;;;;;;;;;;4976776;28;20034;-79
2021/09/26 10:30:28;;;;;;;2.13;1.90;;;;;;;;;;5010591;28;20383;-77
2021/09/26 10:32:55;;;;;;;2.22;1.60;;;;;;;;;;5014793;28;20073;-78
2021/09/26 10:35:20;;;;;;;1.35;1.25;;;;;;;;;;4998797;28;20018;-78
2021/09/26 10:37:46;;;;;;;3.15;1.90;;;;;;;;;;4998201;28;20036;-78
2021/09/26 10:40:11;;;;;;;1.75;1.65;;;;;;;;;;4998620;28;20471;-77
2021/09/26 10:42:37;;;;;;;2.03;1.52;;;;;;;;;;5014853;28;20100;-78
2021/09/26 10:45:04;;;;;;;1.50;1.30;;;;;;;;;;5019171;28;20467;-79
2021/09/26 10:47:33;;;;;;;2.15;1.50;;;;;;;;;;5030401;28;20037;-78
2021/09/26 10:50:02;;;;;;;2.05;1.50;;;;;;;;;;5010793;28;20029;-79
2021/09/26 10:52:37;;;;;;;1.50;1.40;;;;;;;;;;4996900;28;20390;-78
2021/09/26 10:55:15;;;;;;;1.52;1.42;;;;;;;;;;4996695;28;20030;-78
2021/09/26 10:57:41;;;;;;;1.45;1.35;;;;;;;;;;5012589;28;20026;-78
2021/09/26 11:00:07;;;;;;;1.65;1.20;;;;;;;;;;5012323;28;20019;-78
2021/09/26 11:02:33;;;;;;;1.10;1.10;;;;;;;;;;5011960;28;20092;-78
2021/09/26 11:04:59;;;;;;;3.28;1.20;;;;;;;;;;4995889;28;20068;-78
2021/09/26 11:07:27;;;;;;;0.95;0.95;;;;;;;;;;5013259;28;20067;-79
2021/09/26 11:09:56;;;;;;;2.38;1.10;;;;;;;;;;5019627;28;20090;-80
2021/09/26 11:12:37;;;;;;;1.42;1.33;;;;;;;;;;5018434;28;20514;-78
2021/09/26 11:15:03;;;;;;;1.90;1.17;;;;;;;;;;4994811;28;20022;-78
2021/09/26 11:17:41;;;;;;;1.40;1.10;;;;;;;;;;4994887;28;20344;-79
2021/09/26 11:20:07;;;;;;;1.83;0.90;;;;;;;;;;5013678;28;20018;-78
2021/09/26 11:22:32;;;;;;;2.05;1.00;;;;;;;;;;4994752;28;20468;-77
2021/09/26 11:24:58;;;;;;;1.13;1.00;;;;;;;;;;4975561;28;20220;-74
2021/09/26 11:27:41;;;;;;;1.40;1.00;;;;;;;;;;4976698;28;20034;-76
2021/09/26 11:30:09;;;;;;;1.27;1.17;;;;;;;;;;5009591;28;20487;-77
2021/09/26 11:32:34;;;;;;;1.30;1.02;;;;;;;;;;4994637;28;20052;-76
2021/09/26 11:35:04;;;;;;;2.95;1.33;;;;;;;;;;4995144;28;20356;-78
2021/09/26 11:37:48;;;;;;;1.33;1.23;;;;;;;;;;5012247;28;20026;-77
2021/09/26 11:40:16;;;;;;;1.52;1.23;;;;;;;;;;5012938;28;20018;-77
2021/09/26 11:42:42;;;;;;;1.77;1.10;;;;;;;;;;5012064;28;20022;-78
2021/09/26 11:45:09;;;;;;;1.30;1.20;;;;;;;;;;4999668;28;20384;-78
2021/09/26 11:47:35;;;;;;;1.67;1.13;;;;;;;;;;5011638;28;20480;-77
2021/09/26 11:50:04;;;;;;;2.35;1.20;;;;;;;;;;4978988;28;20036;-76
2021/09/26 11:52:34;;;;;;;1.55;1.45;;;;;;;;;;4994199;28;20180;-75
2021/09/26 11:54:59;;;;;;;1.30;1.20;;;;;;;;;;5009358;28;20033;-75
2021/09/26 11:57:25;;;;;;;1.50;1.40;;;;;;;;;;5005855;28;20385;-75
2021/09/26 11:59:50;;;;;;;1.20;0.95;;;;;;;;;;5012541;28;20018;-75
2021/09/26 12:02:16;;;;;;;1.43;1.33;;;;;;;;;;5010926;28;20026;-76
2021/09/26 12:04:41;;;;;;;2.15;1.30;;;;;;;;;;5011412;28;20108;-77
2021/09/26 12:07:07;;;;;;;2.42;1.83;;;;;;;;;;4995219;28;20109;-77
2021/09/26 12:09:49;;;;;;;1.13;1.13;;;;;;;;;;5012257;28;20458;-76
2021/09/26 12:12:15;;;;;;;1.30;1.20;;;;;;;;;;4994333;28;20472;-76
2021/09/26 12:14:42;;;;;;;1.60;1.30;;;;;;;;;;5011560;28;20041;-76
2021/09/26 12:17:08;;;;;;;2.00;1.48;;;;;;;;;;5010733;28;20026;-76
2021/09/26 12:19:34;;;;;;;2.13;1.23;;;;;;;;;;4995251;28;20018;-77
2021/09/26 12:22:13;;;;;;;1.52;1.42;;;;;;;;;;5011658;28;20033;-78
2021/09/26 12:24:41;;;;;;;1.98;1.35;;;;;;;;;;4991922;28;20030;-76
2021/09/26 12:27:39;;;;;;;2.35;1.52;;;;;;;;;;4992641;28;20480;-75
2021/09/26 12:30:07;;;;;;;1.42;1.33;;;;;;;;;;4936059;28;20145;-76
2021/09/26 12:32:36;;;;;;;1.50;1.33;;;;;;;;;;5003387;28;20018;-76
2021/09/26 12:35:05;;;;;;;1.40;1.25;;;;;;;;;;4993852;28;20029;-75
2021/09/26 12:37:32;;;;;;;1.73;1.02;;;;;;;;;;5010605;28;20034;-76
2021/09/26 12:40:00;;;;;;;1.10;1.00;;;;;;;;;;4993866;28;20022;-76
2021/09/26 12:42:28;;;;;;;2.47;1.13;;;;;;;;;;5010963;28;20018;-75
2021/09/26 12:44:53;;;;;;;2.30;1.10;;;;;;;;;;5010890;28;20048;-77
2021/09/26 12:47:21;;;;;;;2.37;1.20;;;;;;;;;;5010609;28;20396;-75
2021/09/26 12:49:48;;;;;;;1.20;1.08;;;;;;;;;;4994235;28;20283;-78
2021/09/26 12:52:19;;;;;;;1.63;1.27;;;;;;;;;;4994255;28;20033;-81
2021/09/26 12:54:45;;;;;;;1.95;1.10;;;;;;;;;;4990741;28;20022;-77
2021/09/26 12:57:13;;;;;;;1.55;1.30;;;;;;;;;;4991816;28;20042;-77
2021/09/26 12:59:40;;;;;;;1.30;1.13;;;;;;;;;;5010309;28;20025;-76
2021/09/26 13:02:11;;;;;;;1.40;1.15;;;;;;;;;;5010953;28;20471;-76
2021/09/26 13:04:37;;;;;;;1.40;1.30;;;;;;;;;;5015562;28;20167;-77
2021/09/26 13:07:04;;;;;;;1.15;1.05;;;;;;;;;;4974555;28;20109;-78
2021/09/26 13:09:29;;;;;;;2.17;1.00;;;;;;;;;;4993536;28;20029;-79
2021/09/26 13:11:54;;;;;;;1.33;1.10;;;;;;;;;;4993436;28;20399;-81
2021/09/26 13:14:21;;;;;;;1.25;1.10;;;;;;;;;;4984915;28;20109;-80
2021/09/26 13:16:48;;;;;;;1.52;1.42;;;;;;;;;;5007491;28;20029;-81
2021/09/26 13:19:25;;;;;;;2.50;1.30;;;;;;;;;;5022921;28;20041;-82
2021/09/26 13:22:09;;;;;;;2.30;1.10;;;;;;;;;;5009562;28;20443;-81
2021/09/26 13:24:36;;;;;;;3.63;1.30;;;;;;;;;;4991581;28;20049;-80
2021/09/26 13:27:16;;;;;;;2.35;1.50;;;;;;;;;;4997818;28;20037;-81
2021/09/26 13:29:42;;;;;;;1.80;1.52;;;;;;;;;;5012271;28;20033;-82
2021/09/26 13:32:34;;;;;;;1.85;1.60;;;;;;;;;;4991213;28;20031;-80
2021/09/26 13:34:59;;;;;;;1.42;1.33;;;;;;;;;;5000875;28;20132;-79
2021/09/26 13:37:24;;;;;;;2.90;1.50;;;;;;;;;;5023269;28;20117;-80
2021/09/26 13:39:52;;;;;;;2.10;1.87;;;;;;;;;;5002618;28;20487;-81
2021/09/26 13:42:17;;;;;;;3.20;1.50;;;;;;;;;;5014475;28;20022;-78
2021/09/26 13:44:42;;;;;;;3.03;1.67;;;;;;;;;;5014997;28;20071;-79
2021/09/26 13:47:07;;;;;;;2.47;1.63;;;;;;;;;;4996011;28;20041;-79
2021/09/26 13:49:33;;;;;;;2.25;1.80;;;;;;;;;;5013386;28;20096;-79
2021/09/26 13:51:58;;;;;;;4.00;1.83;;;;;;;;;;5012237;28;20025;-79
2021/09/26 13:54:23;;;;;;;3.50;1.90;;;;;;;;;;5018304;28;20029;-78
2021/09/26 13:56:48;;;;;;;3.10;1.75;;;;;;;;;;4993132;28;20054;-77
2021/09/26 13:59:14;;;;;;;2.15;1.67;;;;;;;;;;4996748;28;20014;-77
2021/09/26 14:01:39;;;;;;;3.53;2.03;;;;;;;;;;4977031;28;20467;-76
2021/09/26 14:04:04;;;;;;;2.07;1.83;;;;;;;;;;5012672;28;20268;-76
2021/09/26 14:06:29;;;;;;;2.10;1.90;;;;;;;;;;4976017;28;20296;-78
2021/09/26 14:08:55;;;;;;;2.53;1.85;;;;;;;;;;4994938;28;20265;-76
2021/09/26 14:11:22;;;;;;;2.25;2.00;;;;;;;;;;5002407;28;20476;-76
2021/09/26 14:13:47;;;;;;;2.35;1.98;;;;;;;;;;5013590;28;20049;-76
2021/09/26 14:16:15;;;;;;;3.03;1.83;;;;;;;;;;4976399;28;20038;-77
2021/09/26 14:18:40;;;;;;;2.40;1.75;;;;;;;;;;4984731;28;20292;-78
2021/09/26 14:21:06;;;;;;;1.90;1.77;;;;;;;;;;4992176;28;20109;-77
2021/09/26 14:23:33;;;;;;;2.53;1.67;;;;;;;;;;5018547;28;20304;-76
2021/09/26 14:25:58;;;;;;;2.30;2.03;;;;;;;;;;5013337;28;20588;-76
2021/09/26 14:28:23;;;;;;;3.23;1.80;;;;;;;;;;5014341;28;20079;-76
2021/09/26 14:30:48;;;;;;;4.00;1.95;;;;;;;;;;5008648;28;20291;-77